createdAt,value
2022-11-08T00:00:43.397Z,101661.28
2022-11-08T00:03:10.721Z,101664.72
2022-11-08T00:05:59.896Z,101658.53
2022-11-08T00:08:45.326Z,101661.19
2022-11-08T00:11:31.723Z,101647.16
2022-11-08T00:14:01.549Z,101650.69
2022-11-08T00:16:29.682Z,101644.53
2022-11-08T00:18:57.038Z,101646.28
2022-11-08T00:21:26.987Z,101640.19
2022-11-08T00:23:54.423Z,101645.41
2022-11-08T00:26:21.439Z,101642.72
2022-11-08T00:28:48.545Z,101646.22
2022-11-08T00:31:15.585Z,101646.19
2022-11-08T00:33:48.154Z,101638.31
2022-11-08T00:36:15.480Z,101644.38
2022-11-08T00:38:44.010Z,101640.03
2022-11-08T00:41:14.724Z,101639.91
2022-11-08T00:43:45.322Z,101640.78
2022-11-08T00:46:17.536Z,101639.88
2022-11-08T00:48:44.618Z,101639.00
2022-11-08T00:51:17.686Z,101640.75
2022-11-08T00:53:47.094Z,101636.38
2022-11-08T00:56:17.247Z,101623.19
2022-11-08T00:58:44.437Z,101631.94
2022-11-08T01:01:16.381Z,101626.72
2022-11-08T01:03:47.916Z,101626.69
2022-11-08T01:06:17.550Z,101623.13
2022-11-08T01:08:49.956Z,101622.25
2022-11-08T01:11:20.875Z,101631.03
2022-11-08T01:13:49.055Z,101624.06
2022-11-08T01:16:24.085Z,101624.78
2022-11-08T01:18:53.848Z,101622.16
2022-11-08T01:21:21.938Z,101621.34
2022-11-08T01:23:49.734Z,101630.00
2022-11-08T01:26:22.437Z,101631.75
2022-11-08T01:28:50.294Z,101630.88
2022-11-08T01:31:21.818Z,101632.63
2022-11-08T01:33:52.111Z,101631.69
2022-11-08T01:36:22.365Z,101636.88
2022-11-08T01:38:52.322Z,101629.00
2022-11-08T01:41:26.665Z,101635.13
2022-11-08T01:43:59.523Z,101631.44
2022-11-08T01:46:41.232Z,101617.44
2022-11-08T01:49:10.903Z,101623.66
2022-11-08T01:51:45.819Z,101612.28
2022-11-08T01:54:21.985Z,101609.56
2022-11-08T01:56:51.971Z,101606.94
2022-11-08T01:59:19.860Z,101608.63
2022-11-08T02:01:47.856Z,101616.59
2022-11-08T02:04:15.833Z,101608.69
2022-11-08T02:06:44.661Z,101604.16
2022-11-08T02:09:15.605Z,101606.00
2022-11-08T02:11:46.512Z,101605.16
2022-11-08T02:14:14.699Z,101598.13
2022-11-08T02:16:41.833Z,101602.47
2022-11-08T02:19:15.485Z,101603.34
2022-11-08T02:21:49.984Z,101598.84
2022-11-08T02:24:17.826Z,101598.88
2022-11-08T02:26:46.497Z,101590.16
2022-11-08T02:29:29.747Z,101602.38
2022-11-08T02:31:57.813Z,101584.88
2022-11-08T02:34:35.137Z,101591.84
2022-11-08T02:37:04.183Z,101589.22
2022-11-08T02:39:33.127Z,101587.47
2022-11-08T02:42:03.346Z,101583.13
2022-11-08T02:44:30.448Z,101583.13
2022-11-08T02:46:57.579Z,101578.78
2022-11-08T02:49:24.837Z,101575.28
2022-11-08T02:51:54.708Z,101575.22
2022-11-08T02:54:21.767Z,101576.91
2022-11-08T02:56:48.927Z,101577.84
2022-11-08T03:02:28.486Z,101575.13
2022-11-08T03:05:01.380Z,101569.03
2022-11-08T03:07:38.428Z,101563.78
2022-11-08T03:10:12.783Z,101559.38
2022-11-08T03:12:44.599Z,101573.25
2022-11-08T03:15:17.228Z,101569.69
2022-11-08T03:17:55.334Z,101568.81
2022-11-08T03:20:29.607Z,101566.09
2022-11-08T03:23:08.402Z,101566.94
2022-11-08T03:25:46.633Z,101560.81
2022-11-08T03:28:20.303Z,101560.00
2022-11-08T03:30:54.869Z,101558.28
2022-11-08T03:33:25.097Z,101560.94
2022-11-08T03:35:55.416Z,101554.84
2022-11-08T03:38:28.395Z,101551.31
2022-11-08T03:41:00.793Z,101546.00
2022-11-08T03:43:31.155Z,101555.66
2022-11-08T03:46:10.908Z,101553.00
2022-11-08T03:48:40.736Z,101562.56
2022-11-08T03:51:13.497Z,101563.38
2022-11-08T03:53:43.967Z,101565.88
2022-11-08T03:56:14.383Z,101558.00
2022-11-08T03:58:42.764Z,101562.41
2022-11-08T04:01:10.174Z,101561.47
2022-11-08T04:03:40.862Z,101553.59
2022-11-08T04:06:08.652Z,101556.22
2022-11-08T04:08:35.843Z,101564.06
2022-11-08T04:11:22.851Z,101557.13
2022-11-08T04:14:13.396Z,101551.91
2022-11-08T04:16:40.811Z,101549.28
2022-11-08T04:19:26.554Z,101547.47
2022-11-08T04:21:55.479Z,101557.06
2022-11-08T04:24:24.088Z,101557.94
2022-11-08T04:26:51.723Z,101555.31
2022-11-08T04:29:18.877Z,101564.84
2022-11-08T04:31:46.034Z,101564.84
2022-11-08T04:34:13.386Z,101562.22
2022-11-08T04:36:40.632Z,101556.19
2022-11-08T04:39:10.732Z,101562.31
2022-11-08T04:41:38.118Z,101558.72
2022-11-08T04:44:05.331Z,101559.66
2022-11-08T04:46:32.571Z,101563.19
2022-11-08T04:49:00.885Z,101555.31
2022-11-08T04:51:30.542Z,101559.69
2022-11-08T04:54:00.110Z,101557.97
2022-11-08T04:56:29.548Z,101549.13
2022-11-08T04:58:58.745Z,101549.06
2022-11-08T05:04:23.056Z,101545.56
2022-11-08T05:06:59.066Z,101546.41
2022-11-08T05:09:40.189Z,101542.06
2022-11-08T05:12:10.749Z,101538.59
2022-11-08T05:14:48.969Z,101542.81
2022-11-08T05:17:19.314Z,101545.47
2022-11-08T05:20:08.793Z,101548.91
2022-11-08T05:23:00.659Z,101542.81
2022-11-08T05:25:37.445Z,101542.72
2022-11-08T05:28:18.021Z,101551.50
2022-11-08T05:30:58.116Z,101552.31
2022-11-08T05:33:32.918Z,101548.78
2022-11-08T05:36:08.561Z,101547.00
2022-11-08T05:38:41.343Z,101544.44
2022-11-08T05:41:23.069Z,101540.03
2022-11-08T05:44:00.015Z,101545.38
2022-11-08T05:46:53.797Z,101540.91
2022-11-08T05:49:24.017Z,101540.97
2022-11-08T05:51:54.490Z,101539.16
2022-11-08T05:54:24.565Z,101531.28
2022-11-08T05:56:59.660Z,101540.00
2022-11-08T05:59:31.867Z,101536.63
2022-11-08T06:02:04.149Z,101540.13
2022-11-08T06:04:42.790Z,101532.25
2022-11-08T06:07:12.727Z,101533.25
2022-11-08T06:09:48.382Z,101537.69
2022-11-08T06:12:17.284Z,101543.81
2022-11-08T06:14:47.015Z,101535.94
2022-11-08T06:17:26.346Z,101535.16
2022-11-08T06:19:59.397Z,101542.97
2022-11-08T06:22:37.137Z,101541.09
2022-11-08T06:25:14.118Z,101539.34
2022-11-08T06:27:47.194Z,101542.91
2022-11-08T06:30:23.943Z,101549.91
2022-11-08T06:32:51.302Z,101545.47
2022-11-08T06:35:19.643Z,101542.81
2022-11-08T06:37:59.056Z,101549.78
2022-11-08T06:40:35.391Z,101548.19
2022-11-08T06:43:06.502Z,101547.34
2022-11-08T06:45:43.028Z,101550.78
2022-11-08T06:48:10.380Z,101550.00
2022-11-08T06:50:37.476Z,101553.44
2022-11-08T06:53:12.536Z,101545.59
2022-11-08T06:55:39.840Z,101553.47
2022-11-08T06:58:10.741Z,101550.94
2022-11-08T07:00:38.531Z,101556.19
2022-11-08T07:03:05.732Z,101552.75
2022-11-08T07:05:37.232Z,101554.53
2022-11-08T07:08:04.817Z,101550.25
2022-11-08T07:10:36.589Z,101551.13
2022-11-08T07:13:14.948Z,101555.53
2022-11-08T07:15:43.367Z,101559.06
2022-11-08T07:18:16.980Z,101563.56
2022-11-08T07:20:44.512Z,101561.94
2022-11-08T07:23:14.091Z,101563.69
2022-11-08T07:25:45.287Z,101569.81
2022-11-08T07:28:20.431Z,101577.69
2022-11-08T07:30:49.287Z,101571.63
2022-11-08T07:33:18.197Z,101575.22
2022-11-08T07:35:48.701Z,101583.09
2022-11-08T07:38:16.324Z,101577.03
2022-11-08T07:40:47.029Z,101578.88
2022-11-08T07:43:16.835Z,101581.63
2022-11-08T07:45:47.324Z,101583.47
2022-11-08T07:48:14.772Z,101582.66
2022-11-08T07:50:43.009Z,101587.97
2022-11-08T07:53:11.148Z,101590.66
2022-11-08T07:55:40.822Z,101586.41
2022-11-08T07:58:11.763Z,101589.97
2022-11-08T08:00:40.766Z,101588.31
2022-11-08T08:03:10.567Z,101589.22
2022-11-08T08:05:43.204Z,101584.03
2022-11-08T08:08:12.815Z,101585.88
2022-11-08T08:10:41.204Z,101603.34
2022-11-08T08:13:11.207Z,101601.75
2022-11-08T08:15:41.364Z,101595.72
2022-11-08T08:18:12.182Z,101586.28
2022-11-08T08:20:42.419Z,101599.63
2022-11-08T08:23:12.958Z,101589.25
2022-11-08T08:25:41.042Z,101587.66
2022-11-08T08:28:09.722Z,101589.53
2022-11-08T08:30:37.396Z,101594.09
2022-11-08T08:33:27.496Z,101590.66
2022-11-08T08:35:55.617Z,101589.00
2022-11-08T08:38:23.393Z,101589.97
2022-11-08T08:40:51.496Z,101595.34
2022-11-08T08:43:19.436Z,101597.22
2022-11-08T08:45:47.025Z,101591.13
2022-11-08T08:48:14.237Z,101595.59
2022-11-08T08:50:44.396Z,101592.94
2022-11-08T08:53:11.830Z,101595.63
2022-11-08T08:55:43.586Z,101598.25
2022-11-08T08:58:14.691Z,101601.78
2022-11-08T09:03:34.343Z,101602.63
2022-11-08T09:06:02.347Z,101602.63
2022-11-08T09:08:30.615Z,101603.53
2022-11-08T09:11:01.508Z,101604.41
2022-11-08T09:13:35.422Z,101609.69
2022-11-08T09:16:12.787Z,101608.00
2022-11-08T09:18:54.355Z,101602.72
2022-11-08T09:21:28.267Z,101600.97
2022-11-08T09:24:05.137Z,101604.47
2022-11-08T09:26:41.025Z,101599.19
2022-11-08T09:29:12.712Z,101598.31
2022-11-08T09:31:43.822Z,101600.97
2022-11-08T09:34:17.733Z,101591.28
2022-11-08T09:36:59.287Z,101596.53
2022-11-08T09:39:43.651Z,101601.81
2022-11-08T09:42:48.970Z,101604.41
2022-11-08T09:45:49.166Z,101595.59
2022-11-08T09:48:45.479Z,101603.47
2022-11-08T09:51:26.599Z,101594.69
2022-11-08T09:54:04.024Z,101593.78
2022-11-08T09:56:41.630Z,101587.63
2022-11-08T09:59:54.056Z,101598.13
2022-11-08T10:02:28.166Z,101591.06
2022-11-08T10:05:17.643Z,101599.88
2022-11-08T10:08:01.060Z,101597.19
2022-11-08T10:10:51.265Z,101594.50
2022-11-08T10:13:49.065Z,101597.19
2022-11-08T10:16:52.415Z,101598.84
2022-11-08T10:19:38.235Z,101591.50
2022-11-08T10:22:26.239Z,101588.44
2022-11-08T10:25:32.478Z,101588.97
2022-11-08T10:28:17.459Z,101592.28
2022-11-08T10:31:05.692Z,101582.44
2022-11-08T10:34:15.233Z,101579.31
2022-11-08T10:36:50.362Z,101576.97
2022-11-08T10:39:34.526Z,101574.09
2022-11-08T10:42:16.737Z,101569.88
2022-11-08T10:44:57.878Z,101568.06
2022-11-08T10:47:33.147Z,101567.56
2022-11-08T10:50:25.886Z,101565.84
2022-11-08T10:53:03.283Z,101564.94
2022-11-08T10:55:41.466Z,101556.91
2022-11-08T10:58:40.784Z,101559.00
2022-11-08T11:01:29.308Z,101548.84
2022-11-08T11:04:28.965Z,101551.06
2022-11-08T11:07:07.071Z,101541.91
2022-11-08T11:09:43.302Z,101550.22
2022-11-08T11:12:15.150Z,101543.88
2022-11-08T11:14:59.266Z,101548.09
2022-11-08T11:17:41.222Z,101535.50
2022-11-08T11:20:29.476Z,101543.03
2022-11-08T11:23:10.303Z,101542.84
2022-11-08T11:25:37.508Z,101535.94
2022-11-08T11:28:08.092Z,101532.56
2022-11-08T11:30:38.895Z,101533.66
2022-11-08T11:33:24.921Z,101528.41
2022-11-08T11:36:19.410Z,101528.56
2022-11-08T11:39:06.380Z,101522.69
2022-11-08T11:42:17.762Z,101525.66
2022-11-08T11:45:08.772Z,101519.66
2022-11-08T11:47:44.724Z,101514.78
2022-11-08T11:50:42.845Z,101508.50
2022-11-08T11:53:39.152Z,101509.41
2022-11-08T11:56:18.627Z,101501.34
2022-11-08T11:58:50.455Z,101499.13
2022-11-08T12:01:40.480Z,101492.84
2022-11-08T12:04:40.093Z,101485.22
2022-11-08T12:07:42.890Z,101487.22
2022-11-08T12:10:56.365Z,101483.59
2022-11-08T12:13:37.101Z,101484.34
2022-11-08T12:16:15.690Z,101467.50
2022-11-08T12:19:21.411Z,101453.47
2022-11-08T12:21:57.671Z,101461.72
2022-11-08T12:24:42.437Z,101453.78
2022-11-08T12:27:43.317Z,101439.63
2022-11-08T12:30:35.871Z,101452.03
2022-11-08T12:33:22.306Z,101449.00
2022-11-08T12:36:16.837Z,101443.41
2022-11-08T12:38:44.628Z,101438.84
2022-11-08T12:41:40.860Z,101446.03
2022-11-08T12:44:40.678Z,101432.38
2022-11-08T12:47:54.436Z,101440.16
2022-11-08T12:50:46.658Z,101428.13
2022-11-08T12:53:56.482Z,101429.19
2022-11-08T12:56:49.028Z,101422.97
2022-11-08T12:59:31.977Z,101428.03
2022-11-08T13:02:12.152Z,101410.22
2022-11-08T13:05:21.691Z,101397.34
2022-11-08T13:08:05.609Z,101402.25
2022-11-08T13:11:18.934Z,101406.06
2022-11-08T13:14:09.465Z,101394.94
2022-11-08T13:16:45.554Z,101400.34
2022-11-08T13:19:30.400Z,101406.44
2022-11-08T13:21:57.693Z,101405.19
2022-11-08T13:24:50.079Z,101386.31
2022-11-08T13:27:25.908Z,101384.47
2022-11-08T13:30:03.985Z,101371.50
2022-11-08T13:32:53.874Z,101365.88
2022-11-08T13:35:44.240Z,101375.22
2022-11-08T13:38:17.500Z,101371.72
2022-11-08T13:41:03.357Z,101367.13
2022-11-08T13:43:41.353Z,101363.84
2022-11-08T13:46:23.122Z,101371.31
2022-11-08T13:49:07.600Z,101384.72
2022-11-08T13:51:38.062Z,101367.16
2022-11-08T13:54:31.364Z,101368.28
2022-11-08T13:57:02.947Z,101369.44
2022-11-08T13:59:36.239Z,101366.41
2022-11-08T14:02:05.785Z,101366.25
2022-11-08T14:04:40.980Z,101363.69
2022-11-08T14:07:27.689Z,101369.94
2022-11-08T14:10:11.962Z,101359.63
2022-11-08T14:12:57.218Z,101377.34
2022-11-08T14:15:36.373Z,101365.91
2022-11-08T14:18:27.137Z,101356.91
2022-11-08T14:20:58.017Z,101365.91
2022-11-08T14:23:33.102Z,101360.03
2022-11-08T14:26:27.023Z,101367.78
2022-11-08T14:28:54.510Z,101361.78
2022-11-08T14:31:35.147Z,101362.81
2022-11-08T14:34:02.806Z,101356.50
2022-11-08T14:36:32.249Z,101350.06
2022-11-08T14:39:20.932Z,101356.56
2022-11-08T14:41:55.402Z,101361.91
2022-11-08T14:44:24.070Z,101359.72
2022-11-08T14:46:54.780Z,101359.06
2022-11-08T14:49:30.907Z,101349.84
2022-11-08T14:52:19.351Z,101354.75
2022-11-08T14:55:10.475Z,101352.03
2022-11-08T14:57:47.172Z,101348.16
2022-11-08T15:00:21.795Z,101352.34
2022-11-08T15:02:55.311Z,101342.09
2022-11-08T15:05:27.386Z,101336.38
2022-11-08T15:07:54.953Z,101342.47
2022-11-08T15:10:22.372Z,101329.00
2022-11-08T15:12:50.114Z,101325.47
2022-11-08T15:15:25.569Z,101335.44
2022-11-08T15:18:18.092Z,101341.84
2022-11-08T15:21:06.399Z,101333.84
2022-11-08T15:23:47.775Z,101337.19
2022-11-08T15:26:38.074Z,101338.69
2022-11-08T15:29:22.895Z,101341.66
2022-11-08T15:32:01.166Z,101345.41
2022-11-08T15:34:41.165Z,101337.34
2022-11-08T15:37:32.753Z,101344.28
2022-11-08T15:40:07.800Z,101339.53
2022-11-08T15:42:38.442Z,101347.75
2022-11-08T15:45:32.408Z,101343.94
2022-11-08T15:48:27.904Z,101339.34
2022-11-08T15:51:04.996Z,101328.03
2022-11-08T15:53:34.876Z,101330.75
2022-11-08T15:56:04.968Z,101337.03
2022-11-08T15:58:42.667Z,101339.25
2022-11-08T16:01:23.215Z,101338.56
2022-11-08T16:04:02.456Z,101343.72
2022-11-08T16:06:37.212Z,101335.81
2022-11-08T16:09:09.813Z,101329.97
2022-11-08T16:11:43.608Z,101329.56
2022-11-08T16:14:27.219Z,101332.09
2022-11-08T16:16:55.963Z,101326.94
2022-11-08T16:19:29.026Z,101327.84
2022-11-08T16:21:59.525Z,101332.34
2022-11-08T16:24:34.495Z,101335.66
2022-11-08T16:27:12.843Z,101333.19
2022-11-08T16:29:40.343Z,101333.97
2022-11-08T16:32:12.988Z,101338.34
2022-11-08T16:34:48.568Z,101334.13
2022-11-08T16:37:16.349Z,101336.06
2022-11-08T16:39:52.050Z,101341.34
2022-11-08T16:42:21.544Z,101338.94
2022-11-08T16:44:56.890Z,101351.97
2022-11-08T16:47:29.185Z,101347.69
2022-11-08T16:50:07.910Z,101350.53
2022-11-08T16:52:36.386Z,101350.59
2022-11-08T16:55:11.692Z,101344.50
2022-11-08T16:57:41.319Z,101344.50
2022-11-08T17:00:19.881Z,101355.06
2022-11-08T17:02:53.133Z,101356.81
2022-11-08T17:05:23.924Z,101355.91
2022-11-08T17:07:54.680Z,101350.63
2022-11-08T17:10:30.286Z,101366.50
2022-11-08T17:12:58.038Z,101360.34
2022-11-08T17:15:27.738Z,101358.56
2022-11-08T17:17:56.272Z,101354.16
2022-11-08T17:20:26.944Z,101366.47
2022-11-08T17:22:54.594Z,101371.75
2022-11-08T17:25:26.308Z,101363.84
2022-11-08T17:27:53.791Z,101362.94
2022-11-08T17:30:26.650Z,101365.44
2022-11-08T17:32:55.091Z,101370.00
2022-11-08T17:35:28.813Z,101375.19
2022-11-08T17:37:56.402Z,101374.25
2022-11-08T17:40:26.911Z,101371.72
2022-11-08T17:45:23.679Z,101372.59
2022-11-08T17:47:56.423Z,101377.06
2022-11-08T17:50:23.860Z,101376.09
2022-11-08T17:52:57.017Z,101384.03
2022-11-08T17:55:30.435Z,101389.31
2022-11-08T17:57:57.582Z,101393.66
2022-11-08T18:00:25.024Z,101392.81
2022-11-08T18:02:54.707Z,101396.34
2022-11-08T18:05:23.692Z,101398.06
2022-11-08T18:07:51.020Z,101406.84
2022-11-08T18:10:21.271Z,101400.72
2022-11-08T18:12:48.413Z,101398.97
2022-11-08T18:15:18.670Z,101400.72
2022-11-08T18:17:45.744Z,101411.25
2022-11-08T18:20:15.515Z,101413.88
2022-11-08T18:22:43.766Z,101410.38
2022-11-08T18:25:11.056Z,101412.13
2022-11-08T18:27:40.792Z,101417.41
2022-11-08T18:30:08.351Z,101415.66
2022-11-08T18:32:37.013Z,101416.53
2022-11-08T18:35:06.798Z,101421.78
2022-11-08T18:37:48.974Z,101426.19
2022-11-08T18:40:31.155Z,101421.81
2022-11-08T18:42:58.314Z,101427.03
2022-11-08T18:45:28.658Z,101420.03
2022-11-08T18:48:03.430Z,101425.28
2022-11-08T18:50:33.987Z,101414.78
2022-11-08T18:53:03.963Z,101428.81
2022-11-08T18:55:33.807Z,101434.88
2022-11-08T18:58:02.243Z,101438.47
2022-11-08T19:00:35.201Z,101441.09
2022-11-08T19:03:02.706Z,101440.22
2022-11-08T19:05:35.081Z,101443.75
2022-11-08T19:08:02.624Z,101434.09
2022-11-08T19:10:33.161Z,101440.22
2022-11-08T19:13:01.115Z,101440.19
2022-11-08T19:15:28.521Z,101441.91
2022-11-08T19:17:56.164Z,101437.59
2022-11-08T19:20:24.203Z,101434.94
2022-11-08T19:22:56.858Z,101439.34
2022-11-08T19:25:26.708Z,101433.19
2022-11-08T19:28:04.407Z,101437.59
2022-11-08T19:30:37.403Z,101437.59
2022-11-08T19:33:09.498Z,101428.81
2022-11-08T19:35:40.085Z,101436.72
2022-11-08T19:38:19.559Z,101433.22
2022-11-08T19:40:51.951Z,101437.56
2022-11-08T19:43:19.541Z,101435.81
2022-11-08T19:45:57.183Z,101441.97
2022-11-08T19:48:30.987Z,101442.00
2022-11-08T19:51:02.143Z,101443.72
2022-11-08T19:53:33.154Z,101437.56
2022-11-08T19:56:02.202Z,101440.22
2022-11-08T19:58:31.436Z,101446.34
2022-11-08T20:01:06.753Z,101446.34
2022-11-08T20:03:38.250Z,101441.09
2022-11-08T20:06:09.897Z,101449.88
2022-11-08T20:08:41.437Z,101451.63
2022-11-08T20:11:23.484Z,101453.38
2022-11-08T20:13:51.337Z,101457.75
2022-11-08T20:16:25.684Z,101463.91
2022-11-08T20:19:05.618Z,101461.25
2022-11-08T20:21:42.893Z,101467.44
2022-11-08T20:24:20.281Z,101468.28
2022-11-08T20:26:53.059Z,101467.44
2022-11-08T20:29:25.826Z,101469.19
2022-11-08T20:32:03.777Z,101465.66
2022-11-08T20:34:41.210Z,101457.75
2022-11-08T20:37:17.478Z,101467.44
2022-11-08T20:39:54.740Z,101464.81
2022-11-08T20:42:24.992Z,101460.41
2022-11-08T20:44:55.417Z,101471.84
2022-11-08T20:47:22.986Z,101475.34
2022-11-08T20:49:50.588Z,101475.34
2022-11-08T20:52:23.881Z,101477.97
2022-11-08T20:54:51.439Z,101474.47
2022-11-08T20:57:19.184Z,101481.53
2022-11-08T20:59:54.991Z,101485.03
2022-11-08T21:02:22.989Z,101482.41
2022-11-08T21:04:50.666Z,101486.81
2022-11-08T21:08:01.215Z,101485.94
2022-11-08T21:10:35.664Z,101487.63
2022-11-08T21:13:04.892Z,101488.53
2022-11-08T21:15:38.350Z,101494.69
2022-11-08T21:18:05.917Z,101486.78
2022-11-08T21:20:35.453Z,101489.41
2022-11-08T21:23:03.824Z,101486.78
2022-11-08T21:25:35.362Z,101490.25
2022-11-08T21:28:17.011Z,101494.66
2022-11-08T21:30:52.701Z,101500.81
2022-11-08T21:33:26.293Z,101508.72
2022-11-08T21:35:59.596Z,101508.69
2022-11-08T21:38:33.318Z,101500.81
2022-11-08T21:41:11.306Z,101509.59
2022-11-08T21:43:43.930Z,101496.41
2022-11-08T21:46:30.798Z,101498.16
2022-11-08T21:49:08.171Z,101496.41
2022-11-08T21:54:09.557Z,101512.19
2022-11-08T21:59:13.776Z,101505.19
2022-11-08T22:01:47.602Z,101507.81
2022-11-08T22:04:17.989Z,101506.06
2022-11-08T22:06:47.951Z,101500.78
2022-11-08T22:09:15.946Z,101504.31
2022-11-08T22:11:43.227Z,101502.56
2022-11-08T22:14:13.536Z,101507.78
2022-11-08T22:16:42.774Z,101499.91
2022-11-08T22:19:11.847Z,101499.91
2022-11-08T22:21:41.032Z,101496.41
2022-11-08T22:24:22.248Z,101504.28
2022-11-08T22:26:51.787Z,101502.53
2022-11-08T22:29:19.949Z,101507.78
2022-11-08T22:31:48.258Z,101501.63
2022-11-08T22:34:16.307Z,101504.28
2022-11-08T22:36:45.630Z,101492.88
2022-11-08T22:39:21.659Z,101498.09
2022-11-08T22:41:52.156Z,101499.84
2022-11-08T22:44:20.362Z,101501.63
2022-11-08T22:46:48.303Z,101506.00
2022-11-08T22:49:19.009Z,101498.97
2022-11-08T22:51:46.450Z,101499.84
2022-11-08T22:54:16.350Z,101496.34
2022-11-08T22:56:44.491Z,101499.84
2022-11-08T22:59:15.153Z,101500.72
2022-11-08T23:01:42.533Z,101490.19
2022-11-08T23:04:11.522Z,101490.19
2022-11-08T23:06:39.606Z,101497.22
2022-11-08T23:09:08.452Z,101502.41
2022-11-08T23:11:54.293Z,101493.66
2022-11-08T23:14:40.399Z,101490.13
2022-11-08T23:17:08.472Z,101488.34
2022-11-08T23:19:54.302Z,101490.09
2022-11-08T23:22:42.884Z,101489.22
2022-11-08T23:25:11.532Z,101480.47
2022-11-08T23:27:57.023Z,101483.09
2022-11-08T23:30:42.751Z,101483.06
2022-11-08T23:33:10.243Z,101467.25
2022-11-08T23:35:37.765Z,101471.66
2022-11-08T23:38:06.201Z,101476.03
2022-11-08T23:40:51.589Z,101476.00
2022-11-08T23:43:39.904Z,101478.63
2022-11-08T23:46:12.676Z,101476.00
2022-11-08T23:48:41.127Z,101477.75
2022-11-08T23:51:10.227Z,101476.00
2022-11-08T23:53:37.697Z,101465.47
2022-11-08T23:56:07.851Z,101465.47
2022-11-08T23:58:35.045Z,101456.72
